sensor_id;sensor_type;location;lat;lon;timestamp;temperature;humidity
65046;DHT22;54657;52.022;5.534;2023-07-28T00:00:32;19.20;99.30
65046;DHT22;54657;52.022;5.534;2023-07-28T00:02:58;19.20;99.40
65046;DHT22;54657;52.022;5.534;2023-07-28T00:05:23;19.20;99.40
65046;DHT22;54657;52.022;5.534;2023-07-28T00:07:49;19.30;99.40
65046;DHT22;54657;52.022;5.534;2023-07-28T00:10:14;19.30;99.50
65046;DHT22;54657;52.022;5.534;2023-07-28T00:12:40;19.20;99.40
65046;DHT22;54657;52.022;5.534;2023-07-28T00:15:06;19.30;99.40
65046;DHT22;54657;52.022;5.534;2023-07-28T00:17:32;19.30;99.40
65046;DHT22;54657;52.022;5.534;2023-07-28T00:19:57;19.30;99.40
65046;DHT22;54657;52.022;5.534;2023-07-28T00:22:23;19.30;99.40
65046;DHT22;54657;52.022;5.534;2023-07-28T00:24:48;19.30;99.40
65046;DHT22;54657;52.022;5.534;2023-07-28T00:27:14;19.30;99.40
65046;DHT22;54657;52.022;5.534;2023-07-28T00:29:41;19.30;99.40
65046;DHT22;54657;52.022;5.534;2023-07-28T00:32:07;19.30;99.50
65046;DHT22;54657;52.022;5.534;2023-07-28T00:34:32;19.30;99.50
65046;DHT22;54657;52.022;5.534;2023-07-28T00:36:58;19.30;99.60
65046;DHT22;54657;52.022;5.534;2023-07-28T00:39:23;19.20;99.50
65046;DHT22;54657;52.022;5.534;2023-07-28T00:41:49;19.20;99.60
65046;DHT22;54657;52.022;5.534;2023-07-28T00:44:14;19.20;99.60
65046;DHT22;54657;52.022;5.534;2023-07-28T00:46:42;19.20;99.60
65046;DHT22;54657;52.022;5.534;2023-07-28T00:49:08;19.20;99.60
65046;DHT22;54657;52.022;5.534;2023-07-28T00:51:35;19.20;99.50
65046;DHT22;54657;52.022;5.534;2023-07-28T00:54:01;19.20;99.60
65046;DHT22;54657;52.022;5.534;2023-07-28T00:56:27;19.30;99.60
65046;DHT22;54657;52.022;5.534;2023-07-28T00:58:53;19.20;99.50
65046;DHT22;54657;52.022;5.534;2023-07-28T01:01:19;19.20;99.60
65046;DHT22;54657;52.022;5.534;2023-07-28T01:03:45;19.30;99.50
65046;DHT22;54657;52.022;5.534;2023-07-28T01:08:46;19.30;99.50
65046;DHT22;54657;52.022;5.534;2023-07-28T01:11:13;19.30;99.60
65046;DHT22;54657;52.022;5.534;2023-07-28T01:13:39;19.30;99.60
65046;DHT22;54657;52.022;5.534;2023-07-28T01:16:05;19.20;99.60
65046;DHT22;54657;52.022;5.534;2023-07-28T01:18:31;19.20;99.70
65046;DHT22;54657;52.022;5.534;2023-07-28T01:20:58;19.30;99.60
65046;DHT22;54657;52.022;5.534;2023-07-28T01:23:49;19.20;99.70
65046;DHT22;54657;52.022;5.534;2023-07-28T01:26:26;19.30;99.90
65046;DHT22;54657;52.022;5.534;2023-07-28T01:28:52;19.20;99.70
65046;DHT22;54657;52.022;5.534;2023-07-28T01:31:18;19.20;99.80
65046;DHT22;54657;52.022;5.534;2023-07-28T01:33:44;19.20;99.60
65046;DHT22;54657;52.022;5.534;2023-07-28T01:36:10;19.30;99.60
65046;DHT22;54657;52.022;5.534;2023-07-28T01:38:35;19.30;99.60
65046;DHT22;54657;52.022;5.534;2023-07-28T01:41:01;19.30;99.60
65046;DHT22;54657;52.022;5.534;2023-07-28T01:43:26;19.30;99.90
65046;DHT22;54657;52.022;5.534;2023-07-28T01:45:52;19.20;99.60
65046;DHT22;54657;52.022;5.534;2023-07-28T01:48:18;19.20;99.90
65046;DHT22;54657;52.022;5.534;2023-07-28T01:50:43;19.20;99.60
65046;DHT22;54657;52.022;5.534;2023-07-28T01:53:09;19.30;99.60
65046;DHT22;54657;52.022;5.534;2023-07-28T01:55:35;19.30;99.60
65046;DHT22;54657;52.022;5.534;2023-07-28T01:58:01;19.30;99.50
65046;DHT22;54657;52.022;5.534;2023-07-28T02:00:27;19.20;99.60
65046;DHT22;54657;52.022;5.534;2023-07-28T02:02:53;19.20;99.60
65046;DHT22;54657;52.022;5.534;2023-07-28T02:05:20;19.30;99.60
65046;DHT22;54657;52.022;5.534;2023-07-28T02:07:46;19.30;99.50
65046;DHT22;54657;52.022;5.534;2023-07-28T02:10:11;19.30;99.60
65046;DHT22;54657;52.022;5.534;2023-07-28T02:12:38;19.30;99.60
65046;DHT22;54657;52.022;5.534;2023-07-28T02:15:05;19.30;99.60
65046;DHT22;54657;52.022;5.534;2023-07-28T02:17:31;19.30;99.70
65046;DHT22;54657;52.022;5.534;2023-07-28T02:19:56;19.30;99.60
65046;DHT22;54657;52.022;5.534;2023-07-28T02:22:22;19.30;99.60
65046;DHT22;54657;52.022;5.534;2023-07-28T02:24:48;19.30;99.50
65046;DHT22;54657;52.022;5.534;2023-07-28T02:27:13;19.20;99.60
65046;DHT22;54657;52.022;5.534;2023-07-28T02:29:39;19.30;99.60
65046;DHT22;54657;52.022;5.534;2023-07-28T02:32:04;19.20;99.70
65046;DHT22;54657;52.022;5.534;2023-07-28T02:34:30;19.30;99.70
65046;DHT22;54657;52.022;5.534;2023-07-28T02:36:56;19.30;99.60
65046;DHT22;54657;52.022;5.534;2023-07-28T02:39:22;19.30;99.70
65046;DHT22;54657;52.022;5.534;2023-07-28T02:41:48;19.30;99.70
65046;DHT22;54657;52.022;5.534;2023-07-28T02:44:13;19.20;99.70
65046;DHT22;54657;52.022;5.534;2023-07-28T02:46:39;19.20;99.70
65046;DHT22;54657;52.022;5.534;2023-07-28T02:49:04;19.20;99.80
65046;DHT22;54657;52.022;5.534;2023-07-28T02:51:30;19.20;99.70
65046;DHT22;54657;52.022;5.534;2023-07-28T02:53:56;19.30;99.70
65046;DHT22;54657;52.022;5.534;2023-07-28T02:56:22;19.30;99.80
65046;DHT22;54657;52.022;5.534;2023-07-28T02:58:48;19.30;99.90
65046;DHT22;54657;52.022;5.534;2023-07-28T03:01:14;19.30;99.80
65046;DHT22;54657;52.022;5.534;2023-07-28T03:03:39;19.30;99.70
65046;DHT22;54657;52.022;5.534;2023-07-28T03:06:05;19.30;99.80
65046;DHT22;54657;52.022;5.534;2023-07-28T03:08:31;19.30;99.80
65046;DHT22;54657;52.022;5.534;2023-07-28T03:10:59;19.30;99.80
65046;DHT22;54657;52.022;5.534;2023-07-28T03:13:28;19.30;99.90
65046;DHT22;54657;52.022;5.534;2023-07-28T03:15:53;19.30;99.80
65046;DHT22;54657;52.022;5.534;2023-07-28T03:18:19;19.30;99.80
65046;DHT22;54657;52.022;5.534;2023-07-28T03:20:46;19.30;99.80
65046;DHT22;54657;52.022;5.534;2023-07-28T03:23:11;19.30;99.80
65046;DHT22;54657;52.022;5.534;2023-07-28T03:25:37;19.30;99.80
65046;DHT22;54657;52.022;5.534;2023-07-28T03:28:02;19.30;99.80
65046;DHT22;54657;52.022;5.534;2023-07-28T03:30:28;19.30;99.90
65046;DHT22;54657;52.022;5.534;2023-07-28T03:32:54;19.30;99.90
65046;DHT22;54657;52.022;5.534;2023-07-28T03:35:19;19.30;99.90
65046;DHT22;54657;52.022;5.534;2023-07-28T03:37:45;19.30;99.90
65046;DHT22;54657;52.022;5.534;2023-07-28T03:40:10;19.40;99.90
65046;DHT22;54657;52.022;5.534;2023-07-28T03:42:36;19.40;99.90
65046;DHT22;54657;52.022;5.534;2023-07-28T03:45:02;19.40;99.90
65046;DHT22;54657;52.022;5.534;2023-07-28T03:47:28;19.40;99.90
65046;DHT22;54657;52.022;5.534;2023-07-28T03:49:54;19.40;99.80
65046;DHT22;54657;52.022;5.534;2023-07-28T03:52:19;19.40;99.80
65046;DHT22;54657;52.022;5.534;2023-07-28T03:54:45;19.40;99.90
65046;DHT22;54657;52.022;5.534;2023-07-28T03:57:10;19.40;99.90
65046;DHT22;54657;52.022;5.534;2023-07-28T03:59:36;19.50;99.80
65046;DHT22;54657;52.022;5.534;2023-07-28T04:02:02;19.40;99.90
65046;DHT22;54657;52.022;5.534;2023-07-28T04:04:28;19.40;99.90
65046;DHT22;54657;52.022;5.534;2023-07-28T04:06:53;19.40;99.90
65046;DHT22;54657;52.022;5.534;2023-07-28T04:09:19;19.40;99.90
65046;DHT22;54657;52.022;5.534;2023-07-28T04:11:45;19.40;99.90
65046;DHT22;54657;52.022;5.534;2023-07-28T04:14:11;19.40;99.90
65046;DHT22;54657;52.022;5.534;2023-07-28T04:16:38;19.40;99.90
65046;DHT22;54657;52.022;5.534;2023-07-28T04:19:04;19.40;99.90
65046;DHT22;54657;52.022;5.534;2023-07-28T04:21:29;19.40;99.90
65046;DHT22;54657;52.022;5.534;2023-07-28T04:23:55;19.50;99.90
65046;DHT22;54657;52.022;5.534;2023-07-28T04:26:21;19.50;99.90
65046;DHT22;54657;52.022;5.534;2023-07-28T04:28:47;19.40;99.90
65046;DHT22;54657;52.022;5.534;2023-07-28T04:31:13;19.50;99.90
65046;DHT22;54657;52.022;5.534;2023-07-28T04:33:41;19.50;99.90
65046;DHT22;54657;52.022;5.534;2023-07-28T04:36:07;19.50;99.90
65046;DHT22;54657;52.022;5.534;2023-07-28T04:38:32;19.50;99.90
65046;DHT22;54657;52.022;5.534;2023-07-28T04:40:58;19.50;99.90
65046;DHT22;54657;52.022;5.534;2023-07-28T04:43:24;19.50;99.90
65046;DHT22;54657;52.022;5.534;2023-07-28T04:45:49;19.50;99.90
65046;DHT22;54657;52.022;5.534;2023-07-28T04:48:15;19.50;99.90
65046;DHT22;54657;52.022;5.534;2023-07-28T04:50:40;19.50;99.90
65046;DHT22;54657;52.022;5.534;2023-07-28T04:53:06;19.50;99.90
65046;DHT22;54657;52.022;5.534;2023-07-28T04:55:31;19.50;99.90
65046;DHT22;54657;52.022;5.534;2023-07-28T04:57:57;19.50;99.90
65046;DHT22;54657;52.022;5.534;2023-07-28T05:00:23;19.40;99.90
65046;DHT22;54657;52.022;5.534;2023-07-28T05:02:49;19.50;99.90
65046;DHT22;54657;52.022;5.534;2023-07-28T05:05:15;19.50;99.90
65046;DHT22;54657;52.022;5.534;2023-07-28T05:07:41;19.50;99.90
65046;DHT22;54657;52.022;5.534;2023-07-28T05:10:07;19.50;99.90
65046;DHT22;54657;52.022;5.534;2023-07-28T05:12:33;19.50;99.90
65046;DHT22;54657;52.022;5.534;2023-07-28T05:14:59;19.50;99.90
65046;DHT22;54657;52.022;5.534;2023-07-28T05:17:25;19.50;99.90
65046;DHT22;54657;52.022;5.534;2023-07-28T05:19:51;19.50;99.90
65046;DHT22;54657;52.022;5.534;2023-07-28T05:22:16;19.60;99.90
65046;DHT22;54657;52.022;5.534;2023-07-28T05:24:42;19.50;99.90
65046;DHT22;54657;52.022;5.534;2023-07-28T05:27:09;19.50;99.90
65046;DHT22;54657;52.022;5.534;2023-07-28T05:29:35;19.50;99.90
65046;DHT22;54657;52.022;5.534;2023-07-28T05:32:01;19.50;99.90
65046;DHT22;54657;52.022;5.534;2023-07-28T05:34:27;19.50;99.90
65046;DHT22;54657;52.022;5.534;2023-07-28T05:36:52;19.50;99.90
65046;DHT22;54657;52.022;5.534;2023-07-28T05:39:18;19.60;99.90
65046;DHT22;54657;52.022;5.534;2023-07-28T05:41:44;19.60;99.90
65046;DHT22;54657;52.022;5.534;2023-07-28T05:44:09;19.60;99.90
65046;DHT22;54657;52.022;5.534;2023-07-28T05:46:35;19.60;99.90
65046;DHT22;54657;52.022;5.534;2023-07-28T05:49:00;19.60;99.90
65046;DHT22;54657;52.022;5.534;2023-07-28T05:51:26;19.60;99.90
65046;DHT22;54657;52.022;5.534;2023-07-28T05:53:51;19.60;99.90
65046;DHT22;54657;52.022;5.534;2023-07-28T05:56:17;19.60;99.90
65046;DHT22;54657;52.022;5.534;2023-07-28T05:58:45;19.60;99.90
65046;DHT22;54657;52.022;5.534;2023-07-28T06:01:11;19.70;99.90
65046;DHT22;54657;52.022;5.534;2023-07-28T06:03:36;19.70;99.90
65046;DHT22;54657;52.022;5.534;2023-07-28T06:06:02;19.80;99.90
65046;DHT22;54657;52.022;5.534;2023-07-28T06:08:28;19.80;99.90
65046;DHT22;54657;52.022;5.534;2023-07-28T06:10:53;19.80;99.90
65046;DHT22;54657;52.022;5.534;2023-07-28T06:13:19;19.80;99.90
65046;DHT22;54657;52.022;5.534;2023-07-28T06:15:45;19.80;99.90
65046;DHT22;54657;52.022;5.534;2023-07-28T06:18:10;19.80;99.90
65046;DHT22;54657;52.022;5.534;2023-07-28T06:20:36;19.80;99.90
65046;DHT22;54657;52.022;5.534;2023-07-28T06:23:01;19.80;99.90
65046;DHT22;54657;52.022;5.534;2023-07-28T06:25:27;19.80;99.90
65046;DHT22;54657;52.022;5.534;2023-07-28T06:27:53;19.90;99.90
65046;DHT22;54657;52.022;5.534;2023-07-28T06:30:18;19.90;99.90
65046;DHT22;54657;52.022;5.534;2023-07-28T06:32:44;19.80;99.90
65046;DHT22;54657;52.022;5.534;2023-07-28T06:35:09;19.80;99.90
65046;DHT22;54657;52.022;5.534;2023-07-28T06:37:36;19.80;99.90
65046;DHT22;54657;52.022;5.534;2023-07-28T06:40:04;19.90;99.90
65046;DHT22;54657;52.022;5.534;2023-07-28T06:42:32;19.90;99.90
65046;DHT22;54657;52.022;5.534;2023-07-28T06:44:58;19.90;99.90
65046;DHT22;54657;52.022;5.534;2023-07-28T06:47:23;19.90;99.90
65046;DHT22;54657;52.022;5.534;2023-07-28T06:49:49;19.80;99.90
65046;DHT22;54657;52.022;5.534;2023-07-28T06:52:14;19.90;99.90
65046;DHT22;54657;52.022;5.534;2023-07-28T06:54:40;19.90;99.90
65046;DHT22;54657;52.022;5.534;2023-07-28T06:57:06;19.90;99.90
65046;DHT22;54657;52.022;5.534;2023-07-28T06:59:32;19.90;99.90
65046;DHT22;54657;52.022;5.534;2023-07-28T07:01:58;19.90;99.90
65046;DHT22;54657;52.022;5.534;2023-07-28T07:04:23;19.90;99.90
65046;DHT22;54657;52.022;5.534;2023-07-28T07:06:49;19.90;99.90
65046;DHT22;54657;52.022;5.534;2023-07-28T07:09:14;19.90;99.90
65046;DHT22;54657;52.022;5.534;2023-07-28T07:11:40;19.90;99.90
65046;DHT22;54657;52.022;5.534;2023-07-28T07:14:06;19.90;99.90
65046;DHT22;54657;52.022;5.534;2023-07-28T07:16:33;20.00;99.90
65046;DHT22;54657;52.022;5.534;2023-07-28T07:18:59;20.00;99.90
65046;DHT22;54657;52.022;5.534;2023-07-28T07:21:24;20.00;99.90
65046;DHT22;54657;52.022;5.534;2023-07-28T07:23:51;20.00;99.90
65046;DHT22;54657;52.022;5.534;2023-07-28T07:26:17;20.00;99.90
65046;DHT22;54657;52.022;5.534;2023-07-28T07:28:42;20.10;99.90
65046;DHT22;54657;52.022;5.534;2023-07-28T07:31:14;20.10;99.90
65046;DHT22;54657;52.022;5.534;2023-07-28T07:33:40;20.10;99.90
65046;DHT22;54657;52.022;5.534;2023-07-28T07:36:12;20.10;99.90
65046;DHT22;54657;52.022;5.534;2023-07-28T07:38:37;20.10;99.90
65046;DHT22;54657;52.022;5.534;2023-07-28T07:41:03;20.10;99.90
65046;DHT22;54657;52.022;5.534;2023-07-28T07:43:30;20.20;99.90
65046;DHT22;54657;52.022;5.534;2023-07-28T07:45:55;20.20;99.90
65046;DHT22;54657;52.022;5.534;2023-07-28T07:48:21;20.20;99.90
65046;DHT22;54657;52.022;5.534;2023-07-28T07:50:46;20.30;99.90
65046;DHT22;54657;52.022;5.534;2023-07-28T07:53:12;20.20;99.90
65046;DHT22;54657;52.022;5.534;2023-07-28T07:55:37;20.30;99.90
65046;DHT22;54657;52.022;5.534;2023-07-28T07:58:03;20.20;99.90
65046;DHT22;54657;52.022;5.534;2023-07-28T08:00:29;20.20;99.90
65046;DHT22;54657;52.022;5.534;2023-07-28T08:02:54;20.20;99.90
65046;DHT22;54657;52.022;5.534;2023-07-28T08:05:20;20.20;99.90
65046;DHT22;54657;52.022;5.534;2023-07-28T08:07:46;20.20;99.90
65046;DHT22;54657;52.022;5.534;2023-07-28T08:10:12;20.20;99.90
65046;DHT22;54657;52.022;5.534;2023-07-28T08:12:38;20.10;99.90
65046;DHT22;54657;52.022;5.534;2023-07-28T08:15:04;20.20;99.90
65046;DHT22;54657;52.022;5.534;2023-07-28T08:17:30;20.30;99.90
65046;DHT22;54657;52.022;5.534;2023-07-28T08:19:56;20.30;99.90
65046;DHT22;54657;52.022;5.534;2023-07-28T08:22:21;20.30;99.90
65046;DHT22;54657;52.022;5.534;2023-07-28T08:24:47;20.40;99.90
65046;DHT22;54657;52.022;5.534;2023-07-28T08:27:13;20.40;99.90
65046;DHT22;54657;52.022;5.534;2023-07-28T08:29:38;20.40;99.90
65046;DHT22;54657;52.022;5.534;2023-07-28T08:32:04;20.50;99.90
65046;DHT22;54657;52.022;5.534;2023-07-28T08:34:30;20.50;99.90
65046;DHT22;54657;52.022;5.534;2023-07-28T08:36:55;20.50;99.90
65046;DHT22;54657;52.022;5.534;2023-07-28T08:39:21;20.60;99.90
65046;DHT22;54657;52.022;5.534;2023-07-28T08:41:46;20.70;99.90
65046;DHT22;54657;52.022;5.534;2023-07-28T08:44:12;20.70;99.90
65046;DHT22;54657;52.022;5.534;2023-07-28T08:46:38;20.80;99.90
65046;DHT22;54657;52.022;5.534;2023-07-28T08:49:03;20.80;99.90
65046;DHT22;54657;52.022;5.534;2023-07-28T08:51:29;20.90;99.80
65046;DHT22;54657;52.022;5.534;2023-07-28T08:53:55;20.90;99.90
65046;DHT22;54657;52.022;5.534;2023-07-28T08:56:21;20.90;99.60
65046;DHT22;54657;52.022;5.534;2023-07-28T08:58:47;21.00;99.60
65046;DHT22;54657;52.022;5.534;2023-07-28T09:01:12;21.10;99.60
65046;DHT22;54657;52.022;5.534;2023-07-28T09:03:41;21.10;99.40
65046;DHT22;54657;52.022;5.534;2023-07-28T09:06:07;21.20;99.40
65046;DHT22;54657;52.022;5.534;2023-07-28T09:08:36;21.20;99.20
65046;DHT22;54657;52.022;5.534;2023-07-28T09:11:03;21.30;99.30
65046;DHT22;54657;52.022;5.534;2023-07-28T09:13:41;21.30;99.20
65046;DHT22;54657;52.022;5.534;2023-07-28T09:16:17;21.40;99.10
65046;DHT22;54657;52.022;5.534;2023-07-28T09:18:43;21.50;99.20
65046;DHT22;54657;52.022;5.534;2023-07-28T09:21:16;21.60;99.10
65046;DHT22;54657;52.022;5.534;2023-07-28T09:23:42;21.60;98.80
65046;DHT22;54657;52.022;5.534;2023-07-28T09:26:08;21.70;98.70
65046;DHT22;54657;52.022;5.534;2023-07-28T09:28:39;21.80;98.60
65046;DHT22;54657;52.022;5.534;2023-07-28T09:31:05;21.90;98.40
65046;DHT22;54657;52.022;5.534;2023-07-28T09:33:35;22.00;98.30
65046;DHT22;54657;52.022;5.534;2023-07-28T09:36:12;22.00;98.10
65046;DHT22;54657;52.022;5.534;2023-07-28T09:38:40;22.10;98.10
65046;DHT22;54657;52.022;5.534;2023-07-28T09:41:08;22.10;98.20
65046;DHT22;54657;52.022;5.534;2023-07-28T09:43:36;22.20;98.30
65046;DHT22;54657;52.022;5.534;2023-07-28T09:46:06;22.30;98.20
65046;DHT22;54657;52.022;5.534;2023-07-28T09:48:33;22.40;98.10
65046;DHT22;54657;52.022;5.534;2023-07-28T09:51:12;22.60;98.00
65046;DHT22;54657;52.022;5.534;2023-07-28T09:53:49;22.70;97.20
65046;DHT22;54657;52.022;5.534;2023-07-28T09:56:19;22.70;97.20
65046;DHT22;54657;52.022;5.534;2023-07-28T09:58:49;22.70;97.40
65046;DHT22;54657;52.022;5.534;2023-07-28T10:01:16;22.70;97.20
65046;DHT22;54657;52.022;5.534;2023-07-28T10:03:42;22.70;97.50
65046;DHT22;54657;52.022;5.534;2023-07-28T10:06:09;22.80;97.50
65046;DHT22;54657;52.022;5.534;2023-07-28T10:08:37;22.70;97.40
65046;DHT22;54657;52.022;5.534;2023-07-28T10:11:03;22.70;97.30
65046;DHT22;54657;52.022;5.534;2023-07-28T10:13:39;22.80;97.30
65046;DHT22;54657;52.022;5.534;2023-07-28T10:16:05;22.80;97.00
65046;DHT22;54657;52.022;5.534;2023-07-28T10:18:31;22.70;97.20
65046;DHT22;54657;52.022;5.534;2023-07-28T10:21:08;22.80;97.20
65046;DHT22;54657;52.022;5.534;2023-07-28T10:23:35;22.80;97.00
65046;DHT22;54657;52.022;5.534;2023-07-28T10:26:03;22.90;97.00
65046;DHT22;54657;52.022;5.534;2023-07-28T10:28:38;22.90;96.90
65046;DHT22;54657;52.022;5.534;2023-07-28T10:31:10;23.00;96.40
65046;DHT22;54657;52.022;5.534;2023-07-28T10:33:38;22.90;96.50
65046;DHT22;54657;52.022;5.534;2023-07-28T10:41:35;23.30;95.60
65046;DHT22;54657;52.022;5.534;2023-07-28T10:44:01;23.30;96.30
65046;DHT22;54657;52.022;5.534;2023-07-28T10:46:27;23.30;96.00
65046;DHT22;54657;52.022;5.534;2023-07-28T10:48:53;23.20;96.00
65046;DHT22;54657;52.022;5.534;2023-07-28T10:51:23;23.20;96.00
65046;DHT22;54657;52.022;5.534;2023-07-28T10:53:57;23.30;96.00
65046;DHT22;54657;52.022;5.534;2023-07-28T10:56:26;23.40;95.70
65046;DHT22;54657;52.022;5.534;2023-07-28T10:59:02;23.50;96.10
65046;DHT22;54657;52.022;5.534;2023-07-28T11:01:33;23.70;95.40
65046;DHT22;54657;52.022;5.534;2023-07-28T11:04:19;23.70;95.20
65046;DHT22;54657;52.022;5.534;2023-07-28T11:06:47;23.80;93.80
65046;DHT22;54657;52.022;5.534;2023-07-28T11:09:15;23.80;95.30
65046;DHT22;54657;52.022;5.534;2023-07-28T11:11:42;23.90;95.00
65046;DHT22;54657;52.022;5.534;2023-07-28T11:14:08;23.90;94.70
65046;DHT22;54657;52.022;5.534;2023-07-28T11:16:36;23.90;95.00
65046;DHT22;54657;52.022;5.534;2023-07-28T11:19:03;23.90;94.80
65046;DHT22;54657;52.022;5.534;2023-07-28T11:21:29;24.00;95.00
65046;DHT22;54657;52.022;5.534;2023-07-28T11:23:55;24.00;94.80
65046;DHT22;54657;52.022;5.534;2023-07-28T11:26:22;24.00;94.40
65046;DHT22;54657;52.022;5.534;2023-07-28T11:28:48;24.00;94.60
65046;DHT22;54657;52.022;5.534;2023-07-28T11:31:14;24.10;94.30
65046;DHT22;54657;52.022;5.534;2023-07-28T11:33:39;24.20;94.40
65046;DHT22;54657;52.022;5.534;2023-07-28T11:36:06;24.30;94.20
65046;DHT22;54657;52.022;5.534;2023-07-28T11:38:32;24.30;94.00
65046;DHT22;54657;52.022;5.534;2023-07-28T11:40:59;24.30;94.10
65046;DHT22;54657;52.022;5.534;2023-07-28T11:43:25;24.30;93.90
65046;DHT22;54657;52.022;5.534;2023-07-28T11:45:51;24.30;93.80
65046;DHT22;54657;52.022;5.534;2023-07-28T11:48:17;24.40;93.60
65046;DHT22;54657;52.022;5.534;2023-07-28T11:50:43;24.40;93.70
65046;DHT22;54657;52.022;5.534;2023-07-28T11:53:10;24.40;93.50
65046;DHT22;54657;52.022;5.534;2023-07-28T11:55:37;24.50;93.60
65046;DHT22;54657;52.022;5.534;2023-07-28T11:58:05;24.50;93.30
65046;DHT22;54657;52.022;5.534;2023-07-28T12:00:32;24.50;93.50
65046;DHT22;54657;52.022;5.534;2023-07-28T12:03:09;24.60;93.20
65046;DHT22;54657;52.022;5.534;2023-07-28T12:05:36;24.60;92.40
65046;DHT22;54657;52.022;5.534;2023-07-28T12:08:03;24.60;92.90
65046;DHT22;54657;52.022;5.534;2023-07-28T12:10:29;24.60;92.80
65046;DHT22;54657;52.022;5.534;2023-07-28T12:12:54;24.70;92.90
65046;DHT22;54657;52.022;5.534;2023-07-28T12:18:10;24.80;92.40
65046;DHT22;54657;52.022;5.534;2023-07-28T12:20:37;24.80;91.10
65046;DHT22;54657;52.022;5.534;2023-07-28T12:23:04;24.80;92.50
65046;DHT22;54657;52.022;5.534;2023-07-28T12:25:30;24.80;92.00
65046;DHT22;54657;52.022;5.534;2023-07-28T12:27:55;24.80;92.20
65046;DHT22;54657;52.022;5.534;2023-07-28T12:30:21;24.90;92.00
65046;DHT22;54657;52.022;5.534;2023-07-28T12:32:47;24.90;91.90
65046;DHT22;54657;52.022;5.534;2023-07-28T12:35:13;24.90;91.90
65046;DHT22;54657;52.022;5.534;2023-07-28T12:37:39;24.80;91.80
65046;DHT22;54657;52.022;5.534;2023-07-28T12:40:05;24.80;91.80
65046;DHT22;54657;52.022;5.534;2023-07-28T12:42:32;24.90;91.50
65046;DHT22;54657;52.022;5.534;2023-07-28T12:44:57;25.00;91.50
65046;DHT22;54657;52.022;5.534;2023-07-28T12:47:23;25.00;91.30
65046;DHT22;54657;52.022;5.534;2023-07-28T12:49:49;25.00;91.40
65046;DHT22;54657;52.022;5.534;2023-07-28T12:52:15;25.10;91.40
65046;DHT22;54657;52.022;5.534;2023-07-28T12:54:41;25.20;91.20
65046;DHT22;54657;52.022;5.534;2023-07-28T12:57:08;25.30;91.20
65046;DHT22;54657;52.022;5.534;2023-07-28T12:59:36;25.30;90.70
65046;DHT22;54657;52.022;5.534;2023-07-28T13:02:02;25.20;90.70
65046;DHT22;54657;52.022;5.534;2023-07-28T13:04:27;25.30;91.20
65046;DHT22;54657;52.022;5.534;2023-07-28T13:06:53;25.40;90.70
65046;DHT22;54657;52.022;5.534;2023-07-28T13:09:19;25.40;90.60
65046;DHT22;54657;52.022;5.534;2023-07-28T13:11:44;25.40;90.40
65046;DHT22;54657;52.022;5.534;2023-07-28T13:14:10;25.50;90.30
65046;DHT22;54657;52.022;5.534;2023-07-28T13:16:36;25.50;90.40
65046;DHT22;54657;52.022;5.534;2023-07-28T13:19:03;25.50;90.30
65046;DHT22;54657;52.022;5.534;2023-07-28T13:21:29;25.60;90.40
65046;DHT22;54657;52.022;5.534;2023-07-28T13:23:54;25.50;90.30
65046;DHT22;54657;52.022;5.534;2023-07-28T13:26:20;25.50;90.30
65046;DHT22;54657;52.022;5.534;2023-07-28T13:28:46;25.60;90.00
65046;DHT22;54657;52.022;5.534;2023-07-28T13:31:13;25.60;89.90
65046;DHT22;54657;52.022;5.534;2023-07-28T13:33:38;25.70;89.60
65046;DHT22;54657;52.022;5.534;2023-07-28T13:36:04;25.70;89.60
65046;DHT22;54657;52.022;5.534;2023-07-28T13:38:33;25.70;89.00
65046;DHT22;54657;52.022;5.534;2023-07-28T13:40:58;25.70;88.70
65046;DHT22;54657;52.022;5.534;2023-07-28T13:43:24;25.70;88.70
65046;DHT22;54657;52.022;5.534;2023-07-28T13:45:50;25.60;89.00
65046;DHT22;54657;52.022;5.534;2023-07-28T13:48:16;25.60;89.20
65046;DHT22;54657;52.022;5.534;2023-07-28T13:50:41;25.70;89.70
65046;DHT22;54657;52.022;5.534;2023-07-28T13:53:07;25.80;89.10
65046;DHT22;54657;52.022;5.534;2023-07-28T13:55:32;25.80;89.00
65046;DHT22;54657;52.022;5.534;2023-07-28T13:57:58;25.80;88.10
65046;DHT22;54657;52.022;5.534;2023-07-28T14:00:23;25.70;88.40
65046;DHT22;54657;52.022;5.534;2023-07-28T14:02:49;25.70;89.00
65046;DHT22;54657;52.022;5.534;2023-07-28T14:05:15;25.70;88.50
65046;DHT22;54657;52.022;5.534;2023-07-28T14:07:40;25.70;88.70
65046;DHT22;54657;52.022;5.534;2023-07-28T14:10:06;25.80;88.60
65046;DHT22;54657;52.022;5.534;2023-07-28T14:12:31;25.80;87.90
65046;DHT22;54657;52.022;5.534;2023-07-28T14:14:57;25.90;88.00
65046;DHT22;54657;52.022;5.534;2023-07-28T14:17:22;26.00;87.90
65046;DHT22;54657;52.022;5.534;2023-07-28T14:19:48;25.90;87.70
65046;DHT22;54657;52.022;5.534;2023-07-28T14:22:14;25.90;87.80
65046;DHT22;54657;52.022;5.534;2023-07-28T14:24:39;25.90;87.80
65046;DHT22;54657;52.022;5.534;2023-07-28T14:27:05;25.90;87.70
65046;DHT22;54657;52.022;5.534;2023-07-28T14:29:31;25.90;87.80
65046;DHT22;54657;52.022;5.534;2023-07-28T14:31:56;25.90;87.30
65046;DHT22;54657;52.022;5.534;2023-07-28T14:34:22;25.90;87.30
65046;DHT22;54657;52.022;5.534;2023-07-28T14:36:48;26.00;87.00
65046;DHT22;54657;52.022;5.534;2023-07-28T14:39:13;26.10;87.00
65046;DHT22;54657;52.022;5.534;2023-07-28T14:41:39;26.10;87.00
65046;DHT22;54657;52.022;5.534;2023-07-28T14:44:04;26.10;86.50
65046;DHT22;54657;52.022;5.534;2023-07-28T14:46:30;26.10;86.60
65046;DHT22;54657;52.022;5.534;2023-07-28T14:48:56;26.10;86.70
65046;DHT22;54657;52.022;5.534;2023-07-28T14:51:21;26.00;86.80
65046;DHT22;54657;52.022;5.534;2023-07-28T14:53:48;25.90;86.70
65046;DHT22;54657;52.022;5.534;2023-07-28T14:56:15;25.90;86.50
65046;DHT22;54657;52.022;5.534;2023-07-28T14:58:41;25.90;86.00
65046;DHT22;54657;52.022;5.534;2023-07-28T15:01:07;25.90;85.90
65046;DHT22;54657;52.022;5.534;2023-07-28T15:03:34;25.90;85.80
65046;DHT22;54657;52.022;5.534;2023-07-28T15:06:00;25.90;85.90
65046;DHT22;54657;52.022;5.534;2023-07-28T15:08:27;26.00;86.00
65046;DHT22;54657;52.022;5.534;2023-07-28T15:10:53;26.00;86.10
65046;DHT22;54657;52.022;5.534;2023-07-28T15:13:19;26.10;85.80
65046;DHT22;54657;52.022;5.534;2023-07-28T15:15:46;26.10;85.90
65046;DHT22;54657;52.022;5.534;2023-07-28T15:18:12;26.00;85.40
65046;DHT22;54657;52.022;5.534;2023-07-28T15:20:39;25.90;85.30
65046;DHT22;54657;52.022;5.534;2023-07-28T15:23:05;25.80;85.70
65046;DHT22;54657;52.022;5.534;2023-07-28T15:25:30;25.80;86.00
65046;DHT22;54657;52.022;5.534;2023-07-28T15:27:56;25.80;86.10
65046;DHT22;54657;52.022;5.534;2023-07-28T15:30:21;25.70;86.00
65046;DHT22;54657;52.022;5.534;2023-07-28T15:32:49;25.60;86.40
65046;DHT22;54657;52.022;5.534;2023-07-28T15:35:15;25.50;86.20